Time;durP1;ratioP1;P1;durP2;ratioP2;P2;SDS_P1;SDS_P2;PMS_P1;PMS_P2;Temp;Humidity;BMP_temperature;BMP_pressure;BME280_temperature;BME280_humidity;BME280_pressure;Samples;Min_cycle;Max_cycle;Signal;HPM_P1;HPM_P2
2021/06/06 00:01:04;;;;;;;33.10;27.43;;;18.10;99.90;;;;;;5009454;28;20451;-86
2021/06/06 00:03:34;;;;;;;32.33;25.77;;;17.90;99.90;;;;;;4985423;28;20505;-88
2021/06/06 00:06:04;;;;;;;34.47;27.90;;;17.90;99.90;;;;;;4997259;28;20975;-87
2021/06/06 00:08:31;;;;;;;30.97;27.60;;;17.90;99.90;;;;;;5009437;28;20814;-89
2021/06/06 00:11:01;;;;;;;32.20;28.37;;;17.90;99.90;;;;;;5003440;28;20461;-88
2021/06/06 00:13:28;;;;;;;32.80;29.17;;;17.90;99.90;;;;;;5008652;28;20467;-88
2021/06/06 00:15:55;;;;;;;34.00;27.80;;;18.20;99.90;;;;;;5007758;28;20483;-88
2021/06/06 00:18:23;;;;;;;32.50;27.50;;;18.00;99.90;;;;;;5014173;28;20442;-86
2021/06/06 00:20:50;;;;;;;32.00;26.73;;;18.30;99.90;;;;;;4994173;28;20459;-88
2021/06/06 00:23:17;;;;;;;31.53;28.00;;;18.30;99.90;;;;;;5001583;28;20450;-88
2021/06/06 00:25:44;;;;;;;30.97;26.17;;;17.90;99.90;;;;;;5011711;28;20443;-87
2021/06/06 00:28:10;;;;;;;30.03;26.10;;;18.30;99.90;;;;;;5011734;28;20459;-88
2021/06/06 00:30:37;;;;;;;34.67;26.70;;;18.30;99.90;;;;;;5013814;28;20442;-86
2021/06/06 00:33:05;;;;;;;32.67;27.17;;;17.80;99.90;;;;;;5004563;28;21163;-87
2021/06/06 00:35:33;;;;;;;29.47;26.10;;;17.90;99.90;;;;;;4995686;28;20470;-84
2021/06/06 00:38:01;;;;;;;28.93;25.83;;;18.20;99.90;;;;;;5007974;28;20493;-87
2021/06/06 00:40:31;;;;;;;28.43;25.50;;;18.20;99.90;;;;;;4988415;28;20466;-86
2021/06/06 00:42:58;;;;;;;28.70;25.70;;;17.80;99.90;;;;;;5009245;28;20545;-89
2021/06/06 00:45:27;;;;;;;26.53;23.57;;;17.70;99.90;;;;;;5003370;28;20490;-88
2021/06/06 00:47:54;;;;;;;28.40;25.20;;;18.20;99.90;;;;;;4995481;28;20500;-87
2021/06/06 00:50:30;;;;;;;31.60;25.67;;;18.20;99.90;;;;;;4994180;28;20413;-87
2021/06/06 00:53:02;;;;;;;27.90;24.80;;;18.20;99.90;;;;;;4987146;28;21764;-87
2021/06/06 00:55:30;;;;;;;35.00;26.60;;;18.20;99.90;;;;;;4995378;28;20475;-88
2021/06/06 00:57:59;;;;;;;32.13;25.60;;;18.10;99.90;;;;;;4991887;28;20863;-88
2021/06/06 01:00:31;;;;;;;27.27;23.27;;;18.10;99.90;;;;;;5006751;28;20437;-86
2021/06/06 01:03:00;;;;;;;25.03;22.33;;;18.10;99.90;;;;;;4994721;28;20481;-87
2021/06/06 01:05:31;;;;;;;27.50;23.37;;;17.60;99.90;;;;;;4984019;28;20478;-88
2021/06/06 01:08:00;;;;;;;28.53;24.50;;;17.90;99.90;;;;;;4996622;28;20459;-88
2021/06/06 01:10:27;;;;;;;25.90;23.17;;;17.60;99.90;;;;;;4998534;28;20451;-88
2021/06/06 01:13:08;;;;;;;29.20;24.97;;;18.10;99.90;;;;;;5006351;28;20455;-87
2021/06/06 01:15:39;;;;;;;26.37;22.73;;;17.60;99.90;;;;;;5012879;28;20462;-87
2021/06/06 01:18:13;;;;;;;29.93;23.17;;;18.00;99.90;;;;;;4984160;28;20463;-88
2021/06/06 01:20:55;;;;;;;29.07;22.10;;;18.10;99.90;;;;;;5009462;28;20538;-87
2021/06/06 01:23:44;;;;;;;22.73;19.50;;;17.90;99.90;;;;;;5012670;28;20796;-89
2021/06/06 01:26:18;;;;;;;30.23;22.90;;;17.50;99.90;;;;;;4991525;28;20483;-88
2021/06/06 01:28:51;;;;;;;26.97;21.50;;;18.00;99.90;;;;;;4995934;28;20453;-87
2021/06/06 01:31:21;;;;;;;27.27;22.50;;;17.60;99.90;;;;;;4984027;28;20542;-88
2021/06/06 01:33:51;;;;;;;24.97;21.03;;;18.00;99.90;;;;;;5003211;28;20455;-86
2021/06/06 01:36:21;;;;;;;27.00;20.10;;;18.00;99.90;;;;;;4992795;28;20467;-86
2021/06/06 01:38:51;;;;;;;24.00;20.30;;;17.50;99.90;;;;;;5003299;28;20451;-88
2021/06/06 01:41:24;;;;;;;23.63;19.67;;;18.00;99.90;;;;;;4990471;28;20451;-88
2021/06/06 01:43:54;;;;;;;20.90;18.50;;;17.50;99.90;;;;;;4989270;28;20475;-88
2021/06/06 01:46:27;;;;;;;23.63;20.00;;;17.40;99.90;;;;;;4996955;28;20890;-88
2021/06/06 01:48:57;;;;;;;21.53;19.23;;;17.50;99.90;;;;;;5004846;28;20466;-87
2021/06/06 01:51:28;;;;;;;22.40;19.17;;;17.80;99.90;;;;;;4997195;28;20443;-87
2021/06/06 01:53:55;;;;;;;24.43;19.50;;;17.90;99.90;;;;;;5007926;28;21439;-87
2021/06/06 01:56:28;;;;;;;22.60;19.87;;;17.90;99.90;;;;;;4987935;28;20471;-88
2021/06/06 01:58:56;;;;;;;21.23;19.00;;;17.40;99.90;;;;;;4992874;28;20471;-87
2021/06/06 02:01:25;;;;;;;20.27;18.17;;;17.90;99.90;;;;;;5010358;28;20546;-89
2021/06/06 02:03:54;;;;;;;22.80;18.60;;;17.90;99.90;;;;;;4994888;28;20514;-89
2021/06/06 02:06:24;;;;;;;24.30;18.40;;;17.70;99.90;;;;;;4990624;28;21001;-88
2021/06/06 02:08:51;;;;;;;23.60;19.87;;;17.90;99.90;;;;;;4996490;28;20792;-91
2021/06/06 02:11:26;;;;;;;25.50;17.87;;;17.40;99.90;;;;;;5013402;28;20447;-91
2021/06/06 02:13:59;;;;;;;21.17;18.97;;;17.90;99.90;;;;;;5005045;28;20490;-89
2021/06/06 02:16:29;;;;;;;20.20;16.80;;;17.90;99.90;;;;;;5011698;28;20840;-89
2021/06/06 02:18:59;;;;;;;19.73;16.57;;;17.30;99.90;;;;;;4984461;28;20459;-87
2021/06/06 02:21:28;;;;;;;20.73;17.30;;;17.40;99.90;;;;;;4988771;28;20461;-89
2021/06/06 02:23:54;;;;;;;21.03;17.47;;;17.50;99.90;;;;;;5011609;28;20508;-91
2021/06/06 02:26:29;;;;;;;21.10;17.53;;;17.30;99.90;;;;;;5009014;28;20478;-89
2021/06/06 02:29:05;;;;;;;19.77;17.50;;;17.70;99.90;;;;;;4994910;28;20523;-90
2021/06/06 02:31:36;;;;;;;19.10;16.60;;;17.40;99.90;;;;;;5004500;28;20463;-90
2021/06/06 02:34:11;;;;;;;20.33;17.60;;;17.50;99.90;;;;;;5006228;28;20459;-90
2021/06/06 02:36:39;;;;;;;19.20;16.47;;;17.80;99.90;;;;;;4991101;28;20490;-89
2021/06/06 02:39:09;;;;;;;22.80;19.13;;;17.70;99.90;;;;;;5003978;28;20466;-89
2021/06/06 02:41:44;;;;;;;20.73;17.60;;;17.50;99.90;;;;;;5011784;28;20449;-90
2021/06/06 02:44:14;;;;;;;21.43;18.60;;;17.80;99.90;;;;;;5004127;28;20497;-91
2021/06/06 02:46:44;;;;;;;23.87;20.00;;;17.30;99.90;;;;;;4984835;28;21051;-89
2021/06/06 02:49:15;;;;;;;23.80;20.50;;;17.90;99.90;;;;;;5005830;28;20934;-90
2021/06/06 02:51:46;;;;;;;27.00;21.50;;;17.70;99.90;;;;;;4983736;28;20465;-90
2021/06/06 02:54:18;;;;;;;23.83;20.23;;;17.40;99.90;;;;;;5011373;28;20438;-90
2021/06/06 02:56:48;;;;;;;22.90;20.40;;;17.30;99.90;;;;;;5011419;28;20538;-91
2021/06/06 02:59:19;;;;;;;22.33;19.93;;;17.30;99.90;;;;;;4978634;28;20474;-89
2021/06/06 03:01:51;;;;;;;26.67;22.33;;;17.40;99.90;;;;;;5004960;28;20449;-90
2021/06/06 03:04:22;;;;;;;26.47;21.80;;;17.50;99.90;;;;;;5003517;28;20493;-91
2021/06/06 03:06:57;;;;;;;26.60;20.83;;;17.30;99.90;;;;;;4994328;28;20459;-91
2021/06/06 03:09:24;;;;;;;22.53;20.13;;;17.30;99.90;;;;;;5009009;28;20459;-91
2021/06/06 03:11:54;;;;;;;24.47;19.30;;;17.30;99.90;;;;;;5012955;28;20525;-90
2021/06/06 03:14:26;;;;;;;23.10;19.30;;;17.40;99.90;;;;;;5013251;28;20506;-89
2021/06/06 03:16:56;;;;;;;22.50;18.97;;;17.20;99.90;;;;;;4976983;28;20484;-88
2021/06/06 03:19:25;;;;;;;20.37;17.90;;;17.50;99.90;;;;;;4979380;28;20455;-90
2021/06/06 03:21:52;;;;;;;21.13;18.93;;;17.30;99.90;;;;;;4991550;28;20460;-90
2021/06/06 03:24:26;;;;;;;24.00;20.37;;;17.20;99.90;;;;;;4995246;28;20533;-90
2021/06/06 03:26:54;;;;;;;26.90;22.20;;;17.80;99.90;;;;;;4990774;28;20480;-90
2021/06/06 03:29:27;;;;;;;27.73;22.40;;;17.20;99.90;;;;;;4994794;28;20823;-90
2021/06/06 03:31:59;;;;;;;26.23;21.67;;;17.60;99.90;;;;;;4987687;28;20455;-89
2021/06/06 03:34:27;;;;;;;27.50;22.60;;;17.70;99.90;;;;;;4985907;28;20463;-90
2021/06/06 03:36:54;;;;;;;24.67;20.90;;;17.70;99.90;;;;;;4993412;28;20471;-90
2021/06/06 03:39:27;;;;;;;23.30;20.90;;;17.30;99.90;;;;;;4995273;28;20447;-89
2021/06/06 03:42:00;;;;;;;22.77;20.37;;;17.70;99.90;;;;;;4992483;28;20468;-90
2021/06/06 03:44:29;;;;;;;22.13;19.23;;;17.30;99.90;;;;;;4994449;28;20490;-90
2021/06/06 03:46:56;;;;;;;24.07;20.80;;;17.70;99.90;;;;;;4993683;28;20922;-90
2021/06/06 03:49:24;;;;;;;23.20;20.07;;;17.20;99.90;;;;;;4994002;28;20505;-90
2021/06/06 03:51:51;;;;;;;23.27;19.67;;;17.30;99.90;;;;;;4990618;28;20824;-87
2021/06/06 03:54:20;;;;;;;28.70;18.70;;;17.60;99.90;;;;;;4984708;28;20462;-89
2021/06/06 03:56:48;;;;;;;19.97;17.67;;;17.80;99.90;;;;;;4992244;28;21037;-88
2021/06/06 03:59:17;;;;;;;20.20;16.70;;;17.60;99.90;;;;;;4990494;28;20983;-88
2021/06/06 04:01:45;;;;;;;20.50;16.87;;;17.30;99.90;;;;;;4994054;28;20951;-88
2021/06/06 04:04:11;;;;;;;21.03;16.40;;;17.30;99.90;;;;;;4991617;28;20866;-88
2021/06/06 04:06:41;;;;;;;19.47;17.10;;;17.40;99.90;;;;;;4996921;28;20456;-89
2021/06/06 04:09:09;;;;;;;18.97;16.47;;;17.30;99.90;;;;;;4997214;28;20446;-88
2021/06/06 04:11:36;;;;;;;17.77;15.33;;;17.30;99.90;;;;;;4994148;28;20455;-89
2021/06/06 04:14:02;;;;;;;18.80;16.70;;;17.40;99.90;;;;;;4992917;28;20439;-88
2021/06/06 04:16:31;;;;;;;17.40;15.53;;;17.30;99.90;;;;;;4997165;28;20489;-88
2021/06/06 04:18:58;;;;;;;19.23;16.00;;;17.30;99.90;;;;;;4996255;28;20497;-88
2021/06/06 04:21:31;;;;;;;17.20;15.50;;;17.60;99.90;;;;;;5008664;28;20462;-87
2021/06/06 04:23:57;;;;;;;17.50;15.13;;;17.20;99.90;;;;;;4984583;28;20486;-88
2021/06/06 04:26:24;;;;;;;14.70;13.20;;;17.40;99.90;;;;;;5014301;28;20561;-89
2021/06/06 04:28:51;;;;;;;16.10;14.57;;;17.60;99.90;;;;;;4992937;28;20954;-88
2021/06/06 04:31:19;;;;;;;17.97;14.90;;;17.50;99.90;;;;;;4981475;28;20594;-88
2021/06/06 04:33:50;;;;;;;17.90;16.00;;;17.70;99.90;;;;;;4995336;28;20460;-88
2021/06/06 04:36:17;;;;;;;21.13;16.17;;;17.30;99.90;;;;;;5013434;28;20980;-89
2021/06/06 04:38:43;;;;;;;16.80;14.90;;;17.30;99.90;;;;;;5011675;28;20455;-89
2021/06/06 04:41:13;;;;;;;17.57;15.73;;;17.70;99.90;;;;;;5012935;28;20462;-88
2021/06/06 04:43:40;;;;;;;17.63;15.90;;;17.40;99.90;;;;;;4990195;28;20568;-88
2021/06/06 04:46:07;;;;;;;21.43;17.17;;;17.60;99.90;;;;;;5011009;28;20901;-88
2021/06/06 04:48:36;;;;;;;18.97;16.60;;;17.70;99.90;;;;;;5010116;28;20459;-89
2021/06/06 04:51:08;;;;;;;20.50;17.60;;;17.20;99.90;;;;;;4997777;28;20497;-89
2021/06/06 04:53:35;;;;;;;19.43;17.43;;;17.40;99.90;;;;;;5002465;28;20459;-89
2021/06/06 04:56:02;;;;;;;21.90;17.60;;;17.20;99.90;;;;;;5008450;28;21959;-89
2021/06/06 04:58:31;;;;;;;20.43;17.33;;;17.70;99.90;;;;;;4997611;28;20455;-88
2021/06/06 05:00:58;;;;;;;18.27;15.63;;;17.20;99.90;;;;;;4991448;28;20459;-89
2021/06/06 05:03:24;;;;;;;19.17;17.00;;;17.30;99.90;;;;;;5013186;28;20913;-88
2021/06/06 05:05:51;;;;;;;19.10;16.47;;;17.60;99.90;;;;;;5011178;28;20541;-88
2021/06/06 05:08:21;;;;;;;17.70;15.70;;;17.50;99.90;;;;;;5009479;28;20996;-88
2021/06/06 05:10:48;;;;;;;19.07;16.30;;;17.50;99.90;;;;;;5001498;28;20474;-89
2021/06/06 05:13:15;;;;;;;18.43;16.53;;;17.70;99.90;;;;;;4969676;28;20570;-88
2021/06/06 05:15:45;;;;;;;19.87;16.30;;;17.50;99.90;;;;;;4994515;28;20525;-89
2021/06/06 05:18:15;;;;;;;17.47;15.60;;;17.30;99.90;;;;;;4993646;28;20586;-88
2021/06/06 05:20:46;;;;;;;21.00;16.63;;;17.70;99.90;;;;;;4991513;28;20478;-88
2021/06/06 05:23:13;;;;;;;17.93;15.60;;;17.70;99.90;;;;;;5011127;28;20473;-89
2021/06/06 05:25:44;;;;;;;22.13;16.23;;;17.40;99.90;;;;;;5010610;28;20955;-89
2021/06/06 05:28:14;;;;;;;20.17;16.10;;;17.30;99.90;;;;;;4990135;28;20820;-88
2021/06/06 05:30:41;;;;;;;23.00;18.77;;;17.60;99.90;;;;;;5006107;28;20826;-88
2021/06/06 05:33:09;;;;;;;19.60;17.47;;;17.50;99.90;;;;;;5019304;28;20445;-88
2021/06/06 05:35:37;;;;;;;22.17;19.17;;;17.50;99.90;;;;;;4988518;28;20487;-87
2021/06/06 05:38:06;;;;;;;21.37;18.37;;;17.70;99.90;;;;;;4981757;28;20519;-88
2021/06/06 05:40:34;;;;;;;24.07;19.37;;;17.60;99.90;;;;;;5012476;28;20462;-86
2021/06/06 05:43:02;;;;;;;23.20;19.50;;;17.40;99.90;;;;;;5012134;28;20466;-86
2021/06/06 05:45:30;;;;;;;25.40;18.50;;;17.60;99.90;;;;;;4987411;28;20493;-86
2021/06/06 05:47:56;;;;;;;21.43;19.17;;;17.90;99.90;;;;;;5009783;28;20533;-88
2021/06/06 05:50:26;;;;;;;20.47;18.27;;;17.50;99.90;;;;;;5006172;28;20481;-88
2021/06/06 05:52:52;;;;;;;21.57;19.30;;;17.80;99.90;;;;;;4978744;28;20481;-85
2021/06/06 05:55:20;;;;;;;22.23;19.83;;;17.50;99.90;;;;;;4998087;28;20863;-86
2021/06/06 05:57:47;;;;;;;21.20;18.83;;;17.50;99.90;;;;;;4995038;28;20460;-83
2021/06/06 06:00:21;;;;;;;20.83;17.93;;;17.90;99.90;;;;;;4996603;28;20439;-86
2021/06/06 06:02:47;;;;;;;25.07;19.77;;;17.50;99.90;;;;;;4987818;28;20487;-81
2021/06/06 06:05:14;;;;;;;23.87;19.50;;;17.50;99.90;;;;;;5014271;28;20525;-84
2021/06/06 06:07:40;;;;;;;27.17;20.70;;;17.50;99.90;;;;;;5007366;28;20447;-83
2021/06/06 06:10:08;;;;;;;24.23;20.60;;;17.70;99.90;;;;;;5005072;28;20461;-88
2021/06/06 06:12:35;;;;;;;20.13;18.00;;;18.00;99.90;;;;;;5008306;28;20436;-83
2021/06/06 06:15:02;;;;;;;21.90;19.07;;;18.00;99.90;;;;;;5005839;28;20451;-85
2021/06/06 06:17:29;;;;;;;24.47;20.57;;;17.50;99.90;;;;;;4991271;28;20998;-82
2021/06/06 06:19:56;;;;;;;27.23;21.73;;;17.60;99.90;;;;;;5012139;28;20845;-86
2021/06/06 06:22:22;;;;;;;27.00;21.10;;;17.70;99.90;;;;;;5002221;28;20463;-84
2021/06/06 06:24:49;;;;;;;27.30;21.27;;;17.90;99.90;;;;;;5013247;28;20498;-84
2021/06/06 06:27:16;;;;;;;24.40;20.83;;;17.60;99.90;;;;;;5015158;28;20470;-86
2021/06/06 06:29:42;;;;;;;31.70;22.70;;;18.10;99.90;;;;;;5002429;28;20808;-83
2021/06/06 06:32:08;;;;;;;22.80;20.40;;;18.10;99.90;;;;;;5006397;28;20447;-81
2021/06/06 06:34:36;;;;;;;29.17;23.67;;;17.80;99.90;;;;;;5010101;28;20458;-83
2021/06/06 06:37:03;;;;;;;28.27;21.50;;;18.10;99.90;;;;;;5006826;28;20466;-84
2021/06/06 06:39:30;;;;;;;26.40;22.13;;;17.80;99.90;;;;;;5003032;28;20450;-79
2021/06/06 06:41:57;;;;;;;27.37;23.90;;;18.10;99.90;;;;;;5016488;28;20462;-84
2021/06/06 06:44:23;;;;;;;22.50;20.10;;;17.70;99.90;;;;;;5013855;28;20499;-84
2021/06/06 06:46:50;;;;;;;28.13;21.70;;;17.70;99.90;;;;;;5002164;28;20479;-81
2021/06/06 06:49:17;;;;;;;27.40;23.03;;;18.00;99.90;;;;;;4990671;28;20470;-83
2021/06/06 06:51:44;;;;;;;27.83;23.83;;;17.70;99.90;;;;;;5014320;28;21164;-87
2021/06/06 06:54:11;;;;;;;29.83;24.70;;;17.70;99.90;;;;;;5011341;28;20451;-82
2021/06/06 06:56:38;;;;;;;31.40;24.13;;;17.70;99.90;;;;;;5011508;28;20815;-85
2021/06/06 06:59:04;;;;;;;30.37;23.90;;;17.80;99.90;;;;;;5005303;28;20462;-81
2021/06/06 07:01:31;;;;;;;30.63;25.10;;;17.70;99.90;;;;;;5005832;28;20455;-82
2021/06/06 07:03:58;;;;;;;31.83;25.77;;;17.70;99.90;;;;;;5001621;28;20442;-80
2021/06/06 07:06:25;;;;;;;32.00;26.00;;;17.70;99.90;;;;;;5000421;28;21161;-83
2021/06/06 07:08:53;;;;;;;27.70;24.33;;;18.10;99.90;;;;;;5009283;28;20471;-82
2021/06/06 07:11:21;;;;;;;32.90;26.40;;;18.30;99.90;;;;;;4993720;28;20897;-82
2021/06/06 07:13:48;;;;;;;31.70;26.13;;;18.30;99.90;;;;;;5000285;28;20708;-83
2021/06/06 07:16:17;;;;;;;37.97;28.10;;;18.30;99.90;;;;;;4978197;28;20483;-80
2021/06/06 07:18:44;;;;;;;35.40;27.47;;;18.10;99.90;;;;;;4978009;28;20977;-81
2021/06/06 07:21:13;;;;;;;43.70;29.70;;;17.80;99.90;;;;;;4988284;28;20451;-81
2021/06/06 07:23:41;;;;;;;38.67;28.97;;;18.00;99.90;;;;;;5011219;28;20449;-85
2021/06/06 07:26:19;;;;;;;35.00;27.00;;;18.20;99.90;;;;;;4987367;28;20507;-84
2021/06/06 07:28:46;;;;;;;40.70;30.83;;;17.80;99.90;;;;;;4978879;28;20497;-81
2021/06/06 07:31:13;;;;;;;38.90;29.77;;;18.30;99.90;;;;;;4985403;28;20463;-83
2021/06/06 07:33:43;;;;;;;36.07;27.63;;;17.80;99.90;;;;;;4993548;28;20446;-83
2021/06/06 07:36:16;;;;;;;30.03;26.33;;;17.90;99.90;;;;;;5005128;28;20529;-86
2021/06/06 07:38:45;;;;;;;34.10;27.50;;;18.30;99.90;;;;;;4979419;28;20698;-82
2021/06/06 07:41:13;;;;;;;36.03;28.00;;;18.30;99.90;;;;;;5011545;28;20473;-83
2021/06/06 07:43:39;;;;;;;35.13;27.73;;;18.10;99.90;;;;;;5005290;28;20478;-82
2021/06/06 07:46:07;;;;;;;38.57;29.70;;;17.90;99.90;;;;;;5003124;28;20487;-84
2021/06/06 07:48:33;;;;;;;42.27;29.73;;;18.10;99.90;;;;;;5010328;28;20438;-83
2021/06/06 07:51:02;;;;;;;38.93;31.13;;;18.10;99.90;;;;;;5007857;28;20455;-84
2021/06/06 07:53:29;;;;;;;37.17;30.00;;;18.00;99.90;;;;;;5011210;28;20439;-83
2021/06/06 07:55:56;;;;;;;37.93;28.67;;;18.40;99.90;;;;;;5007186;28;20474;-83
2021/06/06 07:58:26;;;;;;;40.70;29.83;;;18.30;99.90;;;;;;5001680;28;20455;-80
2021/06/06 08:00:53;;;;;;;39.33;28.80;;;18.40;99.90;;;;;;4980043;28;20478;-82
2021/06/06 08:03:21;;;;;;;37.60;29.63;;;18.50;99.90;;;;;;4980670;28;20485;-82
2021/06/06 08:05:48;;;;;;;35.40;27.60;;;18.00;99.90;;;;;;5004178;28;20490;-80
2021/06/06 08:08:16;;;;;;;37.77;29.40;;;18.00;99.90;;;;;;5006516;28;20477;-80
2021/06/06 08:10:46;;;;;;;45.17;31.17;;;18.20;99.90;;;;;;4990436;28;20454;-82
2021/06/06 08:13:12;;;;;;;44.50;32.50;;;18.00;99.90;;;;;;5014471;28;20443;-83
2021/06/06 08:15:41;;;;;;;41.60;31.30;;;18.50;99.90;;;;;;5012436;28;20554;-83
2021/06/06 08:18:09;;;;;;;40.07;29.80;;;18.20;99.90;;;;;;5000100;28;20513;-81
2021/06/06 08:20:40;;;;;;;39.53;30.47;;;18.20;99.90;;;;;;4979886;28;20452;-82
2021/06/06 08:23:09;;;;;;;38.83;28.00;;;18.40;99.90;;;;;;4996734;28;20473;-83
2021/06/06 08:25:36;;;;;;;33.73;26.87;;;18.30;99.90;;;;;;4990409;28;20833;-83
2021/06/06 08:28:04;;;;;;;40.70;31.37;;;18.30;99.90;;;;;;4992505;28;20427;-83
2021/06/06 08:30:34;;;;;;;42.80;31.20;;;18.50;99.90;;;;;;5008013;28;20911;-80
2021/06/06 08:33:02;;;;;;;40.33;29.90;;;18.50;99.90;;;;;;4992059;28;20465;-85
2021/06/06 08:35:29;;;;;;;35.83;30.60;;;18.30;99.90;;;;;;5013942;28;20528;-82
2021/06/06 08:37:56;;;;;;;34.70;28.33;;;18.30;99.90;;;;;;5010145;28;20481;-81
2021/06/06 08:40:29;;;;;;;36.00;29.00;;;18.50;99.90;;;;;;5015554;28;20439;-82
2021/06/06 08:42:56;;;;;;;36.23;29.90;;;18.40;99.90;;;;;;5014147;28;20494;-84
2021/06/06 08:45:32;;;;;;;35.30;27.80;;;18.70;99.90;;;;;;5016062;28;21008;-84
2021/06/06 08:48:01;;;;;;;37.03;28.67;;;18.30;99.90;;;;;;4996316;28;20497;-79
2021/06/06 08:50:35;;;;;;;35.77;29.20;;;18.80;99.90;;;;;;4986820;28;20425;-82
2021/06/06 08:53:09;;;;;;;38.53;28.70;;;18.30;99.90;;;;;;4996513;28;20412;-83
2021/06/06 08:55:41;;;;;;;43.70;33.10;;;18.80;99.90;;;;;;5009917;28;20517;-83
2021/06/06 08:58:29;;;;;;;42.83;31.00;;;18.80;99.90;;;;;;4990363;28;20458;-84
2021/06/06 09:01:01;;;;;;;43.57;29.67;;;18.60;99.90;;;;;;4997423;28;20554;-83
2021/06/06 09:03:31;;;;;;;35.37;28.00;;;18.70;99.90;;;;;;4997807;28;20542;-83
2021/06/06 09:06:03;;;;;;;39.50;30.37;;;18.40;99.90;;;;;;4988591;28;20488;-81
2021/06/06 09:08:33;;;;;;;41.50;31.60;;;18.60;99.90;;;;;;4992849;28;20398;-81
2021/06/06 09:11:03;;;;;;;35.03;28.20;;;18.90;99.90;;;;;;4992325;28;20459;-80
2021/06/06 09:13:31;;;;;;;31.27;27.27;;;18.90;99.90;;;;;;4995825;28;20432;-83
2021/06/06 09:16:12;;;;;;;40.93;27.57;;;18.60;99.90;;;;;;5010454;28;20461;-82
2021/06/06 09:18:44;;;;;;;35.90;26.93;;;18.60;99.90;;;;;;4981818;28;20525;-82
2021/06/06 09:21:15;;;;;;;45.97;31.37;;;18.80;99.90;;;;;;4996649;28;20463;-81
2021/06/06 09:23:43;;;;;;;37.00;28.80;;;18.90;99.90;;;;;;5008735;28;20459;-80
2021/06/06 09:26:12;;;;;;;39.37;29.63;;;18.60;99.90;;;;;;5012520;28;20986;-84
2021/06/06 09:28:40;;;;;;;38.13;29.00;;;18.90;99.90;;;;;;5004130;28;20554;-80
2021/06/06 09:31:10;;;;;;;44.77;32.87;;;19.00;99.90;;;;;;4982665;28;20459;-84
2021/06/06 09:33:40;;;;;;;41.07;29.47;;;18.80;99.90;;;;;;4981689;28;20438;-83
2021/06/06 09:36:19;;;;;;;39.03;30.40;;;18.80;99.90;;;;;;5008124;28;20455;-83
2021/06/06 09:38:47;;;;;;;39.90;30.30;;;18.60;99.90;;;;;;4992780;28;20469;-81
2021/06/06 09:41:21;;;;;;;36.17;29.80;;;19.00;99.90;;;;;;5012621;28;20421;-84
2021/06/06 09:44:04;;;;;;;38.33;29.50;;;18.70;99.90;;;;;;4986260;28;20436;-81
2021/06/06 09:46:36;;;;;;;41.00;31.10;;;19.10;99.90;;;;;;4997782;28;20469;-83
2021/06/06 09:49:23;;;;;;;35.70;28.37;;;18.60;99.90;;;;;;5007966;28;20922;-82
2021/06/06 09:51:51;;;;;;;35.87;27.90;;;18.90;99.90;;;;;;4989787;28;20439;-81
2021/06/06 09:54:26;;;;;;;32.50;27.63;;;19.00;99.90;;;;;;5010621;28;20447;-80
2021/06/06 09:56:56;;;;;;;31.67;26.77;;;18.80;99.90;;;;;;4987634;28;20448;-84
2021/06/06 09:59:25;;;;;;;40.60;29.13;;;19.10;99.90;;;;;;5010410;28;20447;-82
2021/06/06 10:01:59;;;;;;;38.50;30.17;;;19.20;99.90;;;;;;4991946;28;20475;-80
2021/06/06 10:04:29;;;;;;;38.70;29.33;;;19.20;99.90;;;;;;4991902;28;22182;-83
2021/06/06 10:07:09;;;;;;;38.40;30.57;;;19.10;99.90;;;;;;4996260;28;20575;-83
2021/06/06 10:09:41;;;;;;;34.87;27.97;;;18.70;99.90;;;;;;5011676;28;20446;-82
2021/06/06 10:12:12;;;;;;;37.23;27.40;;;19.10;99.90;;;;;;5009914;28;21032;-82
2021/06/06 10:14:45;;;;;;;33.40;25.30;;;18.70;99.90;;;;;;5004461;28;20437;-83
2021/06/06 10:17:18;;;;;;;34.17;27.80;;;19.20;99.90;;;;;;5013104;28;20571;-81
2021/06/06 10:19:52;;;;;;;34.50;28.03;;;19.20;99.90;;;;;;5008211;28;20455;-82
2021/06/06 10:22:28;;;;;;;37.20;28.80;;;18.80;99.90;;;;;;5011989;28;20841;-83
2021/06/06 10:25:06;;;;;;;33.13;26.23;;;18.80;99.90;;;;;;5012934;28;20475;-84
2021/06/06 10:27:38;;;;;;;32.83;26.40;;;18.80;99.90;;;;;;5010502;28;20781;-84
2021/06/06 10:30:12;;;;;;;31.27;25.07;;;19.30;99.90;;;;;;5012227;28;20423;-82
2021/06/06 10:32:43;;;;;;;28.43;23.20;;;19.40;99.90;;;;;;4973352;28;22986;-82
2021/06/06 10:35:13;;;;;;;28.53;24.70;;;19.40;99.90;;;;;;4981106;28;20490;-84
2021/06/06 10:37:42;;;;;;;25.23;22.53;;;19.10;99.90;;;;;;4974992;28;20462;-84
2021/06/06 10:40:21;;;;;;;30.73;25.50;;;19.50;99.90;;;;;;4983696;28;20454;-83
2021/06/06 10:42:53;;;;;;;28.17;23.80;;;19.30;99.90;;;;;;4989814;28;20956;-84
2021/06/06 10:45:42;;;;;;;33.00;26.30;;;19.70;99.90;;;;;;4991604;28;20460;-81
2021/06/06 10:48:14;;;;;;;30.40;26.40;;;19.70;99.90;;;;;;4976402;28;20996;-86
2021/06/06 10:50:46;;;;;;;30.63;25.87;;;19.40;99.90;;;;;;4973761;28;20429;-81
2021/06/06 10:53:18;;;;;;;26.27;23.23;;;19.50;99.90;;;;;;4988423;28;20463;-84
2021/06/06 10:56:04;;;;;;;25.17;22.50;;;19.50;99.90;;;;;;4975550;28;20479;-82
2021/06/06 10:58:36;;;;;;;26.17;23.40;;;19.90;99.90;;;;;;4977352;28;20426;-83
2021/06/06 11:01:07;;;;;;;24.73;22.30;;;19.50;99.90;;;;;;4981743;28;20477;-80
2021/06/06 11:03:36;;;;;;;26.77;23.93;;;19.80;99.90;;;;;;4960281;28;21344;-83
2021/06/06 11:06:06;;;;;;;25.20;22.50;;;19.70;99.90;;;;;;4978757;28;20506;-82
2021/06/06 11:08:40;;;;;;;28.10;24.80;;;20.20;99.90;;;;;;4980143;28;20451;-83
2021/06/06 11:11:15;;;;;;;27.70;24.80;;;19.90;99.90;;;;;;5012807;28;20451;-83
2021/06/06 11:13:43;;;;;;;25.70;22.07;;;19.90;99.90;;;;;;5005547;28;20433;-82
2021/06/06 11:16:26;;;;;;;26.10;23.30;;;20.10;99.90;;;;;;4998697;28;20487;-82
2021/06/06 11:18:55;;;;;;;25.30;22.57;;;20.00;99.90;;;;;;4995346;28;20499;-85
2021/06/06 11:21:32;;;;;;;22.60;20.17;;;19.90;99.90;;;;;;4985506;28;20586;-82
2021/06/06 11:24:02;;;;;;;22.70;20.30;;;20.00;99.90;;;;;;4994326;28;20780;-83
2021/06/06 11:26:38;;;;;;;26.07;21.90;;;20.00;99.90;;;;;;5003162;28;20501;-86
2021/06/06 11:29:10;;;;;;;25.93;21.93;;;20.10;99.90;;;;;;5010097;28;20451;-83
2021/06/06 11:31:41;;;;;;;23.80;21.30;;;20.50;99.90;;;;;;4977750;28;20466;-84
2021/06/06 11:34:26;;;;;;;24.03;21.53;;;20.40;99.90;;;;;;5006310;28;20468;-84
2021/06/06 11:37:03;;;;;;;24.00;21.50;;;20.10;99.90;;;;;;5014446;28;20475;-85
2021/06/06 11:39:36;;;;;;;23.57;21.20;;;20.10;99.90;;;;;;4982384;28;20995;-81
2021/06/06 11:42:14;;;;;;;27.67;22.87;;;20.40;99.90;;;;;;5007769;28;20443;-84
2021/06/06 11:44:47;;;;;;;21.20;19.10;;;20.10;99.90;;;;;;5007270;28;20433;-82
2021/06/06 11:47:23;;;;;;;21.83;19.67;;;20.30;99.90;;;;;;5002420;28;20883;-84
2021/06/06 11:49:57;;;;;;;21.23;19.13;;;20.50;99.90;;;;;;4995029;28;20496;-82
2021/06/06 11:52:40;;;;;;;22.77;19.67;;;20.50;99.90;;;;;;5011305;28;20431;-85
2021/06/06 11:55:13;;;;;;;23.07;20.57;;;20.10;99.90;;;;;;4955817;28;20464;-84
2021/06/06 11:57:43;;;;;;;22.07;19.73;;;20.40;99.90;;;;;;4947127;28;20980;-81
2021/06/06 12:00:17;;;;;;;21.50;19.20;;;20.20;99.90;;;;;;4937414;28;20894;-82
2021/06/06 12:02:43;;;;;;;21.87;19.60;;;20.30;99.90;;;;;;4971161;28;20447;-84
2021/06/06 12:05:17;;;;;;;21.57;19.27;;;20.10;99.90;;;;;;4963613;28;20495;-82
2021/06/06 12:07:44;;;;;;;23.83;20.70;;;20.10;99.90;;;;;;4957242;28;20466;-83
2021/06/06 12:10:23;;;;;;;20.67;18.67;;;20.10;99.90;;;;;;4973250;28;20943;-82
2021/06/06 12:12:53;;;;;;;20.80;18.70;;;20.40;99.90;;;;;;4956060;29;20449;-87
2021/06/06 12:15:22;;;;;;;18.67;16.73;;;20.30;99.90;;;;;;4965165;28;20449;-84
2021/06/06 12:17:59;;;;;;;19.07;17.07;;;20.10;99.90;;;;;;4953579;28;20528;-87
2021/06/06 12:20:25;;;;;;;23.87;20.20;;;20.50;99.90;;;;;;4954446;28;20947;-88
2021/06/06 12:23:04;;;;;;;20.70;18.30;;;20.20;99.90;;;;;;4952578;28;20910;-85
2021/06/06 12:25:32;;;;;;;20.30;17.60;;;20.40;99.90;;;;;;4947865;28;20473;-88
2021/06/06 12:28:06;;;;;;;20.77;17.00;;;20.10;99.90;;;;;;5014222;28;20784;-86
2021/06/06 12:30:48;;;;;;;18.50;16.50;;;20.10;99.90;;;;;;4993854;28;20800;-87
2021/06/06 12:33:20;;;;;;;22.10;16.20;;;20.20;99.90;;;;;;4983406;28;20943;-86
2021/06/06 12:35:52;;;;;;;18.40;16.60;;;20.40;99.90;;;;;;4979899;28;20475;-88
2021/06/06 12:38:22;;;;;;;17.67;15.77;;;20.20;99.90;;;;;;5012878;28;20446;-86
2021/06/06 12:40:51;;;;;;;19.80;16.23;;;20.30;99.90;;;;;;4982686;28;20481;-85
2021/06/06 12:43:23;;;;;;;17.87;15.97;;;20.40;99.90;;;;;;5003027;28;20869;-86